Time;durP1;ratioP1;P1;durP2;ratioP2;P2;SDS_P1;SDS_P2;PMS_P1;PMS_P2;Temp;Humidity;BMP_temperature;BMP_pressure;BME280_temperature;BME280_humidity;BME280_pressure;Samples;Min_cycle;Max_cycle;Signal;HPM_P1;HPM_P2
2021/07/15 00:01:21;;;;;;;0.70;0.70;;;19.00;99.80;;;;;;5059731;28;20667;-55
2021/07/15 00:03:48;;;;;;;0.80;0.70;;;18.90;99.80;;;;;;5074150;28;20661;-54
2021/07/15 00:06:15;;;;;;;0.90;0.80;;;18.90;99.80;;;;;;5074265;28;20679;-54
2021/07/15 00:08:44;;;;;;;0.77;0.73;;;18.90;99.80;;;;;;5074096;28;20684;-55
2021/07/15 00:11:13;;;;;;;1.23;0.73;;;18.90;99.80;;;;;;5073305;28;20657;-56
2021/07/15 00:13:41;;;;;;;2.67;0.90;;;18.90;99.80;;;;;;5073623;28;20755;-53
2021/07/15 00:16:11;;;;;;;0.70;0.70;;;18.90;99.80;;;;;;5068622;28;21194;-55
2021/07/15 00:18:40;;;;;;;1.30;0.97;;;18.90;99.80;;;;;;5074096;28;20661;-56
2021/07/15 00:21:08;;;;;;;4.00;0.80;;;18.90;99.90;;;;;;5073364;28;20722;-55
2021/07/15 00:23:35;;;;;;;1.33;0.97;;;18.90;99.90;;;;;;5073556;28;20668;-55
2021/07/15 00:26:04;;;;;;;0.90;0.90;;;18.90;99.90;;;;;;5073675;28;20668;-54
2021/07/15 00:28:31;;;;;;;1.20;0.90;;;18.90;99.90;;;;;;5056478;28;20689;-55
2021/07/15 00:31:00;;;;;;;1.30;0.90;;;18.80;99.90;;;;;;5054120;28;20661;-55
2021/07/15 00:33:28;;;;;;;1.63;0.77;;;18.80;99.90;;;;;;5054633;28;21190;-55
2021/07/15 00:35:55;;;;;;;0.80;0.80;;;18.80;99.90;;;;;;5059003;28;20656;-54
2021/07/15 00:38:22;;;;;;;1.00;0.90;;;18.80;99.90;;;;;;5072647;28;20677;-55
2021/07/15 00:40:49;;;;;;;1.23;0.90;;;18.80;99.90;;;;;;5072877;28;20668;-55
2021/07/15 00:43:17;;;;;;;1.93;0.93;;;18.80;99.90;;;;;;5073434;28;21217;-55
2021/07/15 00:45:44;;;;;;;1.50;1.40;;;18.80;99.90;;;;;;5072639;28;20677;-54
2021/07/15 00:48:12;;;;;;;2.10;0.90;;;18.80;99.90;;;;;;5073164;28;20688;-53
2021/07/15 00:50:40;;;;;;;6.47;1.20;;;18.80;99.90;;;;;;5073328;28;20775;-54
2021/07/15 00:53:08;;;;;;;1.33;1.00;;;18.80;99.90;;;;;;5072882;28;20996;-55
2021/07/15 00:55:37;;;;;;;1.33;1.23;;;18.80;99.90;;;;;;5067379;28;20697;-55
2021/07/15 00:58:05;;;;;;;1.10;1.00;;;18.80;99.90;;;;;;5071010;28;20688;-55
2021/07/15 01:00:32;;;;;;;2.10;1.90;;;18.70;99.90;;;;;;5069001;28;20646;-55
2021/07/15 01:02:59;;;;;;;1.03;0.93;;;18.70;99.90;;;;;;5052736;28;21080;-54
2021/07/15 01:05:29;;;;;;;0.93;0.90;;;18.70;99.90;;;;;;5053692;28;20661;-54
2021/07/15 01:07:56;;;;;;;1.63;0.87;;;18.70;99.90;;;;;;5052646;28;20685;-53
2021/07/15 01:10:25;;;;;;;0.87;0.87;;;18.70;99.90;;;;;;5052814;28;21222;-52
2021/07/15 01:13:11;;;;;;;1.77;1.00;;;18.60;99.90;;;;;;5064745;28;20668;-54
2021/07/15 01:15:42;;;;;;;1.00;1.00;;;18.60;99.90;;;;;;5072028;28;20653;-54
2021/07/15 01:18:15;;;;;;;1.67;1.10;;;18.60;99.90;;;;;;5072319;28;20684;-54
2021/07/15 01:21:08;;;;;;;1.53;0.87;;;18.60;99.90;;;;;;5072525;28;20661;-52
2021/07/15 01:23:49;;;;;;;2.93;1.37;;;18.60;99.90;;;;;;5071421;28;20687;-55
2021/07/15 01:26:21;;;;;;;2.60;1.40;;;18.60;99.90;;;;;;5058496;28;20662;-51
2021/07/15 01:29:02;;;;;;;6.03;1.47;;;18.60;99.90;;;;;;5053398;28;21009;-52
2021/07/15 01:31:33;;;;;;;1.37;1.20;;;18.70;99.90;;;;;;5051914;28;20629;-51
2021/07/15 01:34:00;;;;;;;2.00;1.23;;;18.60;99.90;;;;;;5052695;28;20680;-53
2021/07/15 01:36:28;;;;;;;1.10;1.00;;;18.60;99.90;;;;;;5051861;28;20688;-51
2021/07/15 01:38:58;;;;;;;2.63;1.17;;;18.60;99.90;;;;;;5052473;28;20649;-52
2021/07/15 01:41:26;;;;;;;1.00;0.90;;;18.60;99.90;;;;;;5051750;28;21264;-51
2021/07/15 01:44:05;;;;;;;1.00;1.00;;;18.60;99.90;;;;;;5088997;27;20718;-51
2021/07/15 01:46:32;;;;;;;2.53;1.30;;;18.70;99.90;;;;;;5084317;28;20962;-50
2021/07/15 01:49:00;;;;;;;1.53;1.20;;;18.70;99.90;;;;;;5068611;28;21178;-52
2021/07/15 01:51:27;;;;;;;1.63;1.23;;;18.60;99.90;;;;;;5068343;28;21237;-52
2021/07/15 01:53:54;;;;;;;1.20;1.20;;;18.60;99.90;;;;;;5068366;28;20691;-51
2021/07/15 01:56:21;;;;;;;1.10;1.00;;;18.70;99.90;;;;;;5068163;28;20673;-52
2021/07/15 01:58:48;;;;;;;1.50;1.40;;;18.70;99.90;;;;;;5067997;28;20649;-51
2021/07/15 02:01:18;;;;;;;1.30;1.20;;;18.70;99.90;;;;;;5067984;28;21200;-54
2021/07/15 02:03:49;;;;;;;1.70;1.60;;;18.70;99.90;;;;;;5068201;28;20689;-55
2021/07/15 02:06:16;;;;;;;2.10;1.37;;;18.60;99.90;;;;;;5068180;28;20649;-55
2021/07/15 02:08:43;;;;;;;2.03;1.70;;;18.60;99.90;;;;;;5068547;28;20633;-53
2021/07/15 02:11:10;;;;;;;3.90;1.40;;;18.60;99.90;;;;;;5067764;28;20657;-52
2021/07/15 02:13:38;;;;;;;1.30;1.20;;;18.60;99.90;;;;;;5068524;28;20617;-52
2021/07/15 02:16:05;;;;;;;2.10;1.90;;;18.60;99.90;;;;;;5067698;28;21267;-51
2021/07/15 02:18:33;;;;;;;1.53;1.43;;;18.60;99.90;;;;;;5067991;28;20613;-50
2021/07/15 02:21:01;;;;;;;1.93;1.70;;;18.70;99.90;;;;;;5067796;28;20986;-51
2021/07/15 02:23:28;;;;;;;2.50;1.50;;;18.60;99.90;;;;;;5067770;28;21119;-51
2021/07/15 02:25:56;;;;;;;3.60;1.70;;;18.70;99.90;;;;;;5067336;28;21110;-50
2021/07/15 02:28:24;;;;;;;1.50;1.40;;;18.70;99.90;;;;;;5067535;28;20709;-53
2021/07/15 02:30:55;;;;;;;1.60;1.50;;;18.60;99.90;;;;;;5067577;28;20665;-51
2021/07/15 02:33:24;;;;;;;1.70;1.60;;;18.60;99.90;;;;;;5067583;28;21186;-53
2021/07/15 02:35:54;;;;;;;1.10;1.00;;;18.60;99.90;;;;;;5067874;28;21182;-52
2021/07/15 02:38:22;;;;;;;2.00;1.50;;;18.60;99.90;;;;;;5067139;28;20681;-53
2021/07/15 02:40:49;;;;;;;1.73;1.63;;;18.60;99.90;;;;;;5067674;28;20657;-53
2021/07/15 02:43:17;;;;;;;2.40;1.10;;;18.60;99.90;;;;;;5066848;28;20665;-52
2021/07/15 02:45:44;;;;;;;0.83;0.80;;;18.60;99.90;;;;;;5067284;28;20653;-52
2021/07/15 02:48:12;;;;;;;1.40;1.30;;;18.60;99.90;;;;;;5067248;28;20693;-53
2021/07/15 02:50:39;;;;;;;0.90;0.90;;;18.60;99.90;;;;;;5067340;28;20653;-52
2021/07/15 02:53:07;;;;;;;1.33;1.20;;;18.60;99.90;;;;;;5066540;28;20659;-53
2021/07/15 02:55:35;;;;;;;1.20;1.10;;;18.60;99.90;;;;;;5053554;28;20641;-52
2021/07/15 02:58:03;;;;;;;0.93;0.83;;;18.60;99.90;;;;;;5053838;28;20673;-55
2021/07/15 03:00:34;;;;;;;0.93;0.83;;;18.70;99.90;;;;;;5053690;28;20661;-53
2021/07/15 03:03:03;;;;;;;0.90;0.90;;;18.60;99.90;;;;;;5053786;28;20696;-52
2021/07/15 03:05:33;;;;;;;1.00;0.70;;;18.60;99.90;;;;;;5053579;28;20664;-51
2021/07/15 03:08:05;;;;;;;0.70;0.67;;;18.70;99.90;;;;;;5053936;28;20693;-51
2021/07/15 03:10:34;;;;;;;1.63;0.70;;;18.60;99.90;;;;;;5053444;28;20656;-51
2021/07/15 03:13:03;;;;;;;0.77;0.77;;;18.60;99.90;;;;;;5052480;28;20699;-51
2021/07/15 03:15:31;;;;;;;0.93;0.53;;;18.60;99.90;;;;;;5053947;28;20633;-52
2021/07/15 03:17:58;;;;;;;1.30;0.80;;;18.60;99.90;;;;;;5053591;28;20686;-52
2021/07/15 03:20:29;;;;;;;1.33;0.80;;;18.70;99.90;;;;;;5053438;28;20653;-53
2021/07/15 03:22:58;;;;;;;0.87;0.77;;;18.60;99.90;;;;;;5054114;28;21304;-52
2021/07/15 03:25:25;;;;;;;0.70;0.70;;;18.60;99.90;;;;;;5043928;28;21222;-55
2021/07/15 03:27:56;;;;;;;0.70;0.70;;;18.60;99.90;;;;;;5035236;28;20691;-51
2021/07/15 03:30:25;;;;;;;1.10;1.00;;;18.60;99.90;;;;;;5053434;28;20621;-53
2021/07/15 03:32:52;;;;;;;0.80;0.80;;;18.60;99.90;;;;;;5052863;28;20657;-52
2021/07/15 03:35:19;;;;;;;0.90;0.90;;;18.50;99.90;;;;;;5053403;28;20654;-53
2021/07/15 03:37:47;;;;;;;1.60;1.07;;;18.50;99.90;;;;;;5052584;28;20690;-52
2021/07/15 03:40:16;;;;;;;1.27;0.90;;;18.50;99.90;;;;;;5052810;28;20634;-53
2021/07/15 03:42:43;;;;;;;0.80;0.80;;;18.50;99.90;;;;;;5052428;28;21089;-52
2021/07/15 03:45:14;;;;;;;0.80;0.80;;;18.50;99.90;;;;;;5052298;28;20618;-53
2021/07/15 03:47:41;;;;;;;0.70;0.70;;;18.50;99.90;;;;;;5052544;28;20685;-52
2021/07/15 03:50:09;;;;;;;1.30;1.20;;;18.50;99.90;;;;;;5053179;28;21197;-53
2021/07/15 03:52:36;;;;;;;1.37;1.00;;;18.50;99.90;;;;;;5052611;28;20633;-54
2021/07/15 03:55:04;;;;;;;1.17;0.80;;;18.50;99.90;;;;;;5052542;28;20630;-53
2021/07/15 03:57:31;;;;;;;3.37;1.03;;;18.50;99.90;;;;;;5052770;28;20685;-52
2021/07/15 03:59:58;;;;;;;1.33;1.23;;;18.50;99.90;;;;;;5052028;28;20673;-55
2021/07/15 04:02:27;;;;;;;1.27;0.93;;;18.50;99.90;;;;;;5051959;28;20665;-53
2021/07/15 04:04:55;;;;;;;1.37;1.23;;;18.50;99.90;;;;;;5052492;28;21050;-54
2021/07/15 04:07:24;;;;;;;1.17;1.07;;;18.50;99.90;;;;;;5051122;28;21237;-52
2021/07/15 04:09:51;;;;;;;2.50;1.73;;;18.50;99.90;;;;;;5052640;28;20662;-53
2021/07/15 04:12:19;;;;;;;2.50;1.20;;;18.50;99.90;;;;;;5052390;28;20642;-54
2021/07/15 04:14:53;;;;;;;1.43;1.33;;;18.50;99.90;;;;;;5052885;28;20626;-53
2021/07/15 04:17:20;;;;;;;1.60;1.50;;;18.50;99.90;;;;;;5051915;28;20681;-53
2021/07/15 04:19:49;;;;;;;1.80;1.33;;;18.50;99.90;;;;;;5052206;28;20626;-54
2021/07/15 04:22:16;;;;;;;1.67;1.57;;;18.50;99.90;;;;;;5050803;28;20627;-52
2021/07/15 04:24:43;;;;;;;1.57;1.47;;;18.50;99.90;;;;;;5052352;28;20717;-53
2021/07/15 04:27:11;;;;;;;3.63;1.90;;;18.60;99.90;;;;;;5052023;28;20686;-53
2021/07/15 04:29:38;;;;;;;1.50;1.40;;;18.50;99.90;;;;;;5051943;28;20653;-54
2021/07/15 04:32:26;;;;;;;3.30;1.80;;;18.60;99.90;;;;;;5051603;28;20638;-54
2021/07/15 04:34:55;;;;;;;1.80;1.00;;;18.40;99.90;;;;;;5051667;28;20645;-53
2021/07/15 04:37:22;;;;;;;1.97;1.10;;;18.60;99.90;;;;;;5051776;28;20688;-53
2021/07/15 04:39:49;;;;;;;1.20;1.10;;;18.60;99.90;;;;;;5051631;28;20687;-53
2021/07/15 04:42:17;;;;;;;1.73;1.53;;;18.60;99.90;;;;;;5051788;28;20654;-53
2021/07/15 04:44:45;;;;;;;1.47;0.80;;;18.60;99.90;;;;;;5051627;28;21254;-53
2021/07/15 04:47:13;;;;;;;2.03;0.97;;;18.60;99.90;;;;;;5051589;28;21068;-52
2021/07/15 04:49:41;;;;;;;1.80;0.97;;;18.60;99.90;;;;;;5052763;28;20956;-52
2021/07/15 04:52:09;;;;;;;1.13;0.87;;;18.60;99.90;;;;;;5049958;28;20671;-53
2021/07/15 04:54:37;;;;;;;2.33;0.90;;;18.50;99.90;;;;;;5051110;28;20662;-53
2021/07/15 04:57:05;;;;;;;1.10;0.90;;;18.50;99.90;;;;;;5031531;28;20683;-53
2021/07/15 04:59:34;;;;;;;1.80;1.10;;;18.60;99.90;;;;;;5037429;28;20665;-53
2021/07/15 05:02:01;;;;;;;1.43;0.93;;;18.60;99.90;;;;;;5051099;28;20630;-52
2021/07/15 05:04:28;;;;;;;1.47;0.93;;;18.60;99.90;;;;;;5051147;28;20694;-53
2021/07/15 05:06:56;;;;;;;0.70;0.67;;;18.60;99.90;;;;;;5051143;28;20670;-52
2021/07/15 05:09:24;;;;;;;0.80;0.77;;;18.60;99.90;;;;;;5051668;28;20630;-53
2021/07/15 05:11:52;;;;;;;1.13;0.80;;;18.70;99.90;;;;;;5050793;28;21038;-53
2021/07/15 05:14:19;;;;;;;1.47;0.50;;;18.70;99.90;;;;;;5031115;28;20662;-52
2021/07/15 05:16:46;;;;;;;0.70;0.70;;;18.70;99.90;;;;;;5030423;28;20747;-54
2021/07/15 05:19:14;;;;;;;1.00;0.87;;;18.60;99.90;;;;;;5030704;28;21266;-54
2021/07/15 05:21:41;;;;;;;1.33;0.77;;;18.60;99.90;;;;;;5030058;28;21035;-53
2021/07/15 05:24:08;;;;;;;0.90;0.90;;;18.60;99.90;;;;;;5044038;28;20678;-53
2021/07/15 05:26:37;;;;;;;1.47;0.73;;;18.60;99.90;;;;;;5050196;28;20665;-53
2021/07/15 05:29:04;;;;;;;1.30;0.80;;;18.70;99.90;;;;;;5049705;28;20658;-53
2021/07/15 05:31:31;;;;;;;0.97;0.87;;;18.60;99.90;;;;;;5050152;28;20665;-54
2021/07/15 05:33:58;;;;;;;0.90;0.60;;;18.70;99.90;;;;;;5050422;28;20629;-55
2021/07/15 05:36:26;;;;;;;0.97;0.87;;;18.80;99.90;;;;;;5050670;28;20693;-53
2021/07/15 05:38:53;;;;;;;1.10;0.70;;;18.70;99.90;;;;;;5050163;28;20680;-54
2021/07/15 05:41:20;;;;;;;0.70;0.70;;;18.80;99.90;;;;;;5050083;28;20647;-52
2021/07/15 05:43:50;;;;;;;0.90;0.70;;;18.70;99.90;;;;;;5050249;28;20693;-53
2021/07/15 05:46:17;;;;;;;0.93;0.70;;;18.80;99.90;;;;;;5050680;28;20622;-54
2021/07/15 05:48:44;;;;;;;1.30;1.20;;;18.80;99.90;;;;;;5050770;28;20623;-52
2021/07/15 05:51:12;;;;;;;0.80;0.53;;;18.80;99.90;;;;;;5050815;28;21196;-52
2021/07/15 05:53:39;;;;;;;2.23;0.50;;;18.80;99.90;;;;;;5050384;28;20669;-52
2021/07/15 05:56:06;;;;;;;1.63;0.53;;;18.80;99.80;;;;;;5050655;28;21006;-51
2021/07/15 05:58:33;;;;;;;0.70;0.70;;;18.80;99.70;;;;;;5049927;28;20614;-53
2021/07/15 06:01:02;;;;;;;0.60;0.60;;;18.80;99.70;;;;;;5049899;28;20918;-52
2021/07/15 06:03:30;;;;;;;1.33;1.23;;;18.80;99.80;;;;;;5050384;28;20675;-54
2021/07/15 06:05:57;;;;;;;0.70;0.70;;;18.80;99.80;;;;;;5048738;28;20736;-52
2021/07/15 06:08:24;;;;;;;0.60;0.60;;;18.80;99.60;;;;;;5050431;28;20694;-53
2021/07/15 06:10:51;;;;;;;1.30;1.00;;;18.80;99.50;;;;;;5050474;28;21195;-51
2021/07/15 06:13:18;;;;;;;0.67;0.67;;;18.80;99.60;;;;;;5049973;28;20622;-52
2021/07/15 06:15:46;;;;;;;2.90;0.97;;;18.90;99.60;;;;;;5050209;28;20661;-52
2021/07/15 06:18:14;;;;;;;1.50;0.90;;;18.90;99.50;;;;;;5049530;28;20657;-53
2021/07/15 06:20:41;;;;;;;1.00;0.83;;;18.80;99.20;;;;;;5049396;28;21182;-52
2021/07/15 06:23:09;;;;;;;0.80;0.67;;;18.80;99.40;;;;;;5046792;28;21297;-52
2021/07/15 06:25:36;;;;;;;0.93;0.83;;;18.90;99.60;;;;;;5048931;28;20693;-52
2021/07/15 06:28:03;;;;;;;0.83;0.70;;;18.90;99.60;;;;;;5049907;28;20696;-53
2021/07/15 06:30:30;;;;;;;0.83;0.83;;;18.90;99.50;;;;;;5053022;28;20653;-53
2021/07/15 06:32:58;;;;;;;0.90;0.80;;;19.00;99.40;;;;;;5053834;28;21098;-52
2021/07/15 06:35:27;;;;;;;1.00;0.90;;;19.00;99.20;;;;;;5053450;28;21167;-52
2021/07/15 06:37:55;;;;;;;2.30;1.93;;;19.10;99.20;;;;;;5053488;28;20649;-51
2021/07/15 06:40:22;;;;;;;2.40;2.20;;;19.10;99.40;;;;;;5053307;28;20965;-52
2021/07/15 06:42:50;;;;;;;2.83;1.53;;;19.10;99.50;;;;;;5053469;28;21064;-52
2021/07/15 06:45:17;;;;;;;2.37;2.00;;;19.10;99.70;;;;;;5053268;28;20692;-53
2021/07/15 06:47:44;;;;;;;1.50;1.40;;;19.20;99.70;;;;;;5053608;28;20698;-52
2021/07/15 06:50:12;;;;;;;3.87;1.30;;;19.20;99.70;;;;;;5053378;28;20622;-50
2021/07/15 06:52:41;;;;;;;2.30;1.20;;;19.30;99.90;;;;;;5053748;28;20699;-51
2021/07/15 06:55:09;;;;;;;5.13;1.43;;;19.60;99.50;;;;;;5052916;28;21256;-50
2021/07/15 06:57:36;;;;;;;1.70;1.60;;;19.70;98.90;;;;;;5052900;28;20657;-51
2021/07/15 07:00:07;;;;;;;2.03;1.53;;;19.70;98.90;;;;;;5052725;28;20662;-51
2021/07/15 07:02:38;;;;;;;1.43;1.20;;;19.80;99.00;;;;;;5053760;28;20617;-51
2021/07/15 07:05:06;;;;;;;1.47;1.10;;;19.90;98.60;;;;;;5053434;28;20645;-51
2021/07/15 07:07:34;;;;;;;1.77;1.40;;;20.00;98.00;;;;;;5051908;28;20688;-52
2021/07/15 07:10:02;;;;;;;1.23;1.13;;;20.00;97.60;;;;;;5053033;28;20657;-50
2021/07/15 07:12:29;;;;;;;1.77;1.10;;;20.00;97.60;;;;;;5051181;28;20654;-51
2021/07/15 07:14:57;;;;;;;1.47;1.37;;;20.00;97.40;;;;;;5049594;28;20666;-53
2021/07/15 07:17:24;;;;;;;2.33;1.00;;;20.00;97.40;;;;;;5051768;28;20689;-55
2021/07/15 07:19:51;;;;;;;1.47;1.20;;;19.90;97.40;;;;;;5052720;28;20915;-55
2021/07/15 07:22:18;;;;;;;1.17;1.07;;;19.90;97.50;;;;;;5052252;28;20722;-55
2021/07/15 07:24:45;;;;;;;1.40;1.10;;;19.90;97.40;;;;;;5052726;28;21246;-55
2021/07/15 07:27:14;;;;;;;2.10;1.10;;;19.90;97.50;;;;;;5052098;28;20693;-54
2021/07/15 07:29:41;;;;;;;1.53;0.90;;;19.80;97.40;;;;;;5052479;28;20654;-53
2021/07/15 07:32:08;;;;;;;1.60;1.50;;;19.80;97.30;;;;;;5052014;28;20654;-53
2021/07/15 07:34:36;;;;;;;0.80;0.80;;;19.80;97.40;;;;;;5052577;28;20769;-53
2021/07/15 07:37:03;;;;;;;0.93;0.83;;;19.90;97.60;;;;;;5052462;28;20692;-52
2021/07/15 07:39:30;;;;;;;1.20;1.10;;;19.90;97.50;;;;;;5051795;28;20656;-52
2021/07/15 07:41:58;;;;;;;2.03;1.07;;;20.00;97.40;;;;;;5052750;28;20666;-53
2021/07/15 07:44:27;;;;;;;4.57;4.27;;;20.10;97.50;;;;;;5051975;28;21029;-54
2021/07/15 07:46:54;;;;;;;1.90;1.60;;;20.10;97.40;;;;;;5052481;28;20731;-52
2021/07/15 07:49:21;;;;;;;1.50;1.40;;;20.20;97.60;;;;;;5052085;28;20650;-52
2021/07/15 07:51:49;;;;;;;1.77;1.67;;;20.30;97.40;;;;;;5052023;28;20650;-53
2021/07/15 07:54:16;;;;;;;1.63;1.53;;;20.30;97.40;;;;;;5051868;28;20707;-52
2021/07/15 07:56:43;;;;;;;1.83;1.73;;;20.30;97.40;;;;;;5051976;28;20674;-51
2021/07/15 07:59:11;;;;;;;2.20;1.97;;;20.30;97.40;;;;;;5051407;28;20720;-53
2021/07/15 08:01:40;;;;;;;3.10;1.73;;;20.30;97.30;;;;;;5051588;28;20637;-52
2021/07/15 08:04:07;;;;;;;1.93;1.63;;;20.20;97.40;;;;;;5052109;28;20630;-51
2021/07/15 08:06:36;;;;;;;1.70;1.60;;;20.20;97.50;;;;;;5051554;28;20805;-51
2021/07/15 08:09:05;;;;;;;2.00;1.90;;;20.20;97.50;;;;;;5051848;28;20622;-52
2021/07/15 08:11:33;;;;;;;2.63;1.63;;;20.10;97.50;;;;;;5051672;28;20652;-53
2021/07/15 08:14:00;;;;;;;2.20;1.77;;;20.10;97.40;;;;;;5051910;28;20626;-52
2021/07/15 08:16:27;;;;;;;1.63;1.53;;;20.20;97.50;;;;;;5051836;28;20712;-52
2021/07/15 08:18:56;;;;;;;2.50;1.47;;;20.10;97.50;;;;;;5051560;28;20645;-53
2021/07/15 08:21:24;;;;;;;1.80;1.70;;;20.20;97.50;;;;;;5051178;28;20769;-53
2021/07/15 08:23:52;;;;;;;1.40;1.30;;;20.20;97.70;;;;;;5051558;28;20669;-52
2021/07/15 08:26:19;;;;;;;1.70;1.60;;;20.20;97.40;;;;;;5051355;28;21044;-51
2021/07/15 08:28:46;;;;;;;1.70;1.60;;;20.20;97.20;;;;;;5050513;28;20630;-52
2021/07/15 08:31:14;;;;;;;2.30;1.80;;;20.10;97.20;;;;;;5050623;28;21191;-53
2021/07/15 08:33:41;;;;;;;1.83;1.70;;;20.10;97.20;;;;;;5051424;28;20669;-52
2021/07/15 08:36:10;;;;;;;1.63;1.53;;;20.10;97.20;;;;;;5051144;28;20750;-52
2021/07/15 08:38:38;;;;;;;1.50;1.40;;;20.00;97.20;;;;;;5051061;28;20630;-52
2021/07/15 08:41:06;;;;;;;2.00;1.90;;;20.00;97.20;;;;;;5050799;28;20668;-51
2021/07/15 08:43:34;;;;;;;2.70;2.33;;;20.00;97.30;;;;;;5051049;28;20696;-52
2021/07/15 08:46:01;;;;;;;2.90;2.47;;;20.00;97.30;;;;;;5051109;28;20689;-53
2021/07/15 08:48:29;;;;;;;6.00;5.50;;;20.00;97.40;;;;;;5050898;28;20650;-53
2021/07/15 08:50:56;;;;;;;2.20;2.10;;;20.00;97.50;;;;;;5050801;28;20664;-54
2021/07/15 08:53:27;;;;;;;2.37;2.27;;;20.00;97.60;;;;;;5050423;28;20651;-53
2021/07/15 08:58:39;;;;;;;3.53;2.13;;;20.00;97.60;;;;;;5050788;28;20625;-53
2021/07/15 09:01:06;;;;;;;2.77;2.20;;;20.00;97.60;;;;;;5050633;28;20638;-52
2021/07/15 09:03:34;;;;;;;5.50;2.00;;;20.10;97.60;;;;;;5050637;28;20989;-53
2021/07/15 09:06:01;;;;;;;2.27;2.07;;;20.10;97.60;;;;;;5050898;28;20693;-53
2021/07/15 09:08:31;;;;;;;4.13;1.90;;;20.10;97.60;;;;;;5050257;28;20728;-53
2021/07/15 09:10:59;;;;;;;1.97;1.87;;;20.10;97.50;;;;;;5049902;28;20634;-53
2021/07/15 09:13:26;;;;;;;4.13;2.27;;;20.20;97.50;;;;;;5050132;28;21269;-52
2021/07/15 09:15:53;;;;;;;2.10;1.90;;;20.20;97.30;;;;;;5050946;28;20658;-52
2021/07/15 09:18:20;;;;;;;1.90;1.80;;;20.20;97.30;;;;;;5050859;28;21281;-51
2021/07/15 09:20:48;;;;;;;3.00;2.80;;;20.20;97.30;;;;;;5050654;28;20720;-53
2021/07/15 09:23:16;;;;;;;3.57;3.27;;;20.20;97.30;;;;;;5050769;28;21028;-51
2021/07/15 09:25:57;;;;;;;2.63;2.40;;;20.30;97.30;;;;;;5050445;28;20690;-52
2021/07/15 09:28:32;;;;;;;2.67;1.60;;;20.30;97.30;;;;;;5050553;28;20654;-52
2021/07/15 09:31:14;;;;;;;2.03;1.93;;;20.40;97.10;;;;;;5050360;28;20671;-53
2021/07/15 09:33:41;;;;;;;1.80;1.70;;;20.40;96.90;;;;;;5050721;28;20670;-53
2021/07/15 09:36:12;;;;;;;2.47;2.10;;;20.40;96.70;;;;;;5049955;28;21049;-52
2021/07/15 09:38:40;;;;;;;3.43;2.17;;;20.50;96.80;;;;;;5050719;28;20711;-52
2021/07/15 09:41:09;;;;;;;1.53;1.43;;;20.60;96.70;;;;;;5049553;28;20657;-52
2021/07/15 09:43:37;;;;;;;2.53;1.27;;;20.70;96.50;;;;;;5050085;28;20633;-52
2021/07/15 09:46:19;;;;;;;1.60;1.50;;;20.80;96.20;;;;;;5049982;28;20696;-52
2021/07/15 09:48:47;;;;;;;1.50;1.40;;;20.80;95.80;;;;;;5050430;28;20655;-53
2021/07/15 09:51:16;;;;;;;1.47;1.37;;;20.90;95.80;;;;;;5050076;28;20661;-53
2021/07/15 09:53:43;;;;;;;2.00;1.83;;;20.90;95.70;;;;;;5050096;28;20680;-53
2021/07/15 09:56:12;;;;;;;8.23;2.10;;;21.00;95.60;;;;;;5049514;28;20984;-52
2021/07/15 09:58:41;;;;;;;1.77;1.67;;;21.10;95.70;;;;;;5050188;28;21227;-52
2021/07/15 10:01:09;;;;;;;2.23;1.50;;;21.20;95.50;;;;;;5049900;28;20669;-53
2021/07/15 10:03:38;;;;;;;3.87;1.73;;;21.40;95.10;;;;;;5050366;28;21197;-53
2021/07/15 10:06:05;;;;;;;1.40;1.30;;;21.40;95.10;;;;;;5053738;28;20674;-52
2021/07/15 10:08:33;;;;;;;2.30;1.33;;;21.50;95.00;;;;;;5054197;28;20687;-52
2021/07/15 10:11:17;;;;;;;1.70;1.50;;;21.60;94.70;;;;;;5053882;28;20657;-52
2021/07/15 10:13:45;;;;;;;2.10;1.67;;;21.60;93.90;;;;;;5052934;28;20677;-52
2021/07/15 10:16:12;;;;;;;1.97;1.77;;;21.60;93.90;;;;;;5054148;28;20638;-52
2021/07/15 10:18:41;;;;;;;2.23;1.50;;;21.60;93.80;;;;;;5054137;28;20658;-51
2021/07/15 10:21:09;;;;;;;1.53;1.43;;;21.60;94.00;;;;;;5053909;28;20658;-52
2021/07/15 10:23:37;;;;;;;1.63;1.53;;;21.60;94.20;;;;;;5053353;28;20657;-51
2021/07/15 10:26:05;;;;;;;2.30;1.60;;;21.60;93.80;;;;;;5053794;28;20699;-52
2021/07/15 10:28:33;;;;;;;1.33;1.23;;;21.60;94.00;;;;;;5053684;28;21023;-52
2021/07/15 10:31:01;;;;;;;1.63;1.40;;;21.70;93.50;;;;;;5053476;28;21068;-52
2021/07/15 10:33:29;;;;;;;1.33;1.23;;;21.70;93.10;;;;;;5053268;28;20653;-52
2021/07/15 10:35:57;;;;;;;2.03;1.20;;;21.70;93.10;;;;;;5053387;28;20664;-52
2021/07/15 10:38:24;;;;;;;1.10;1.00;;;21.70;92.90;;;;;;5052881;28;20685;-51
2021/07/15 10:40:51;;;;;;;1.27;1.17;;;21.70;92.70;;;;;;5053345;28;20645;-51
2021/07/15 10:43:19;;;;;;;1.50;1.40;;;21.80;92.40;;;;;;5051690;28;20625;-51
2021/07/15 10:45:47;;;;;;;1.20;1.10;;;21.80;91.70;;;;;;5052872;28;21167;-53
2021/07/15 10:48:15;;;;;;;1.37;1.27;;;21.80;91.60;;;;;;5052593;28;20689;-53
2021/07/15 10:50:43;;;;;;;1.10;1.00;;;21.80;91.80;;;;;;5052355;28;20699;-53
2021/07/15 10:53:10;;;;;;;1.60;0.90;;;21.80;92.00;;;;;;5052957;28;20668;-53
2021/07/15 10:55:38;;;;;;;1.23;1.13;;;21.90;91.90;;;;;;5052618;28;20654;-53
2021/07/15 10:58:05;;;;;;;2.83;1.93;;;22.00;91.90;;;;;;5053283;28;20677;-54
2021/07/15 11:00:32;;;;;;;2.20;1.67;;;22.10;91.10;;;;;;5051108;28;20626;-54
2021/07/15 11:03:14;;;;;;;1.23;1.13;;;22.30;91.70;;;;;;5053435;28;20660;-53
2021/07/15 11:05:49;;;;;;;1.50;0.90;;;22.30;90.90;;;;;;5053329;28;20626;-53
2021/07/15 11:08:17;;;;;;;1.40;1.30;;;22.40;90.70;;;;;;5052749;28;20672;-54
2021/07/15 11:10:44;;;;;;;1.00;0.90;;;22.40;90.60;;;;;;5052461;28;20980;-54
2021/07/15 11:13:12;;;;;;;1.40;1.30;;;22.30;89.60;;;;;;5052453;28;20625;-54
2021/07/15 11:15:49;;;;;;;1.63;1.00;;;22.30;89.70;;;;;;5049956;28;20621;-51
2021/07/15 11:18:52;;;;;;;2.00;1.17;;;22.20;90.00;;;;;;5051884;28;20660;-52
2021/07/15 11:21:36;;;;;;;0.83;0.83;;;22.30;90.00;;;;;;5052351;28;20728;-53
2021/07/15 11:24:52;;;;;;;2.27;1.13;;;22.30;90.10;;;;;;5052445;28;20973;-52
2021/07/15 11:27:33;;;;;;;2.50;1.00;;;22.30;90.10;;;;;;5052537;28;20694;-52
2021/07/15 11:30:00;;;;;;;3.83;1.40;;;22.40;90.40;;;;;;5053062;28;21032;-52
2021/07/15 11:32:28;;;;;;;2.10;1.23;;;22.40;90.50;;;;;;5053040;28;20630;-54
2021/07/15 11:34:56;;;;;;;2.67;1.40;;;22.50;90.60;;;;;;5052721;28;21167;-53
2021/07/15 11:37:39;;;;;;;1.97;1.03;;;22.50;90.50;;;;;;5052275;28;20675;-53
2021/07/15 11:40:29;;;;;;;2.77;1.23;;;22.50;90.70;;;;;;5052221;28;20622;-53
2021/07/15 11:42:56;;;;;;;1.53;1.10;;;22.60;90.30;;;;;;5052289;28;20701;-53
2021/07/15 11:45:24;;;;;;;1.13;1.03;;;22.60;90.20;;;;;;5051422;28;20928;-53
2021/07/15 11:47:52;;;;;;;1.93;1.17;;;22.60;90.40;;;;;;5051897;28;20706;-53
2021/07/15 11:50:35;;;;;;;0.67;0.67;;;22.60;90.30;;;;;;5052201;28;20658;-53
2021/07/15 11:53:15;;;;;;;1.10;1.00;;;22.70;90.10;;;;;;5051970;28;21163;-53
2021/07/15 11:55:43;;;;;;;1.17;0.80;;;22.70;88.90;;;;;;5052074;28;20656;-53
2021/07/15 11:58:18;;;;;;;1.10;1.00;;;22.70;88.40;;;;;;5052504;28;20692;-53
2021/07/15 12:00:46;;;;;;;1.03;0.93;;;22.70;87.30;;;;;;5052761;28;20665;-53
2021/07/15 12:03:15;;;;;;;0.90;0.90;;;22.60;88.50;;;;;;5052089;28;20772;-53
2021/07/15 12:05:45;;;;;;;3.03;1.03;;;22.70;88.00;;;;;;5051975;28;20665;-55
2021/07/15 12:08:16;;;;;;;0.83;0.60;;;22.90;86.70;;;;;;5051903;28;20657;-52
2021/07/15 12:10:44;;;;;;;1.10;1.00;;;22.90;86.90;;;;;;5051900;28;20665;-54
2021/07/15 12:13:12;;;;;;;1.60;0.83;;;23.00;86.30;;;;;;5051117;28;20626;-55
2021/07/15 12:15:41;;;;;;;0.70;0.70;;;23.10;86.40;;;;;;5051691;28;20663;-54
2021/07/15 12:18:10;;;;;;;1.73;1.20;;;23.10;85.90;;;;;;5050955;28;20676;-53
2021/07/15 12:20:38;;;;;;;0.97;0.83;;;23.20;85.20;;;;;;5051404;28;20694;-54
2021/07/15 12:23:11;;;;;;;0.93;0.93;;;23.20;84.80;;;;;;5050324;28;20657;-53
2021/07/15 12:25:39;;;;;;;0.90;0.90;;;23.20;85.10;;;;;;5051502;28;20630;-54
2021/07/15 12:28:08;;;;;;;1.30;1.20;;;23.20;85.20;;;;;;5049534;28;20698;-53
2021/07/15 12:30:45;;;;;;;2.13;1.20;;;23.20;85.20;;;;;;5051459;28;20711;-54
2021/07/15 12:33:14;;;;;;;1.43;1.17;;;23.20;84.90;;;;;;5050983;28;20657;-54
2021/07/15 12:35:42;;;;;;;1.97;1.43;;;23.20;84.60;;;;;;5050603;28;20722;-57
2021/07/15 12:38:27;;;;;;;4.63;1.40;;;23.10;85.10;;;;;;5050783;28;20701;-54
2021/07/15 12:41:15;;;;;;;1.30;1.20;;;23.10;85.90;;;;;;5051232;28;20687;-53
2021/07/15 12:43:50;;;;;;;1.47;1.37;;;23.10;85.90;;;;;;5050880;28;20638;-54
2021/07/15 12:46:18;;;;;;;1.20;1.10;;;23.10;85.50;;;;;;5050595;28;20743;-54
2021/07/15 12:48:47;;;;;;;1.40;1.00;;;23.00;85.20;;;;;;5050471;28;20704;-55
2021/07/15 12:51:14;;;;;;;0.90;0.80;;;23.00;85.80;;;;;;5050909;28;20652;-55
2021/07/15 12:53:47;;;;;;;0.97;0.90;;;23.00;85.10;;;;;;5050479;28;21028;-55
2021/07/15 12:56:18;;;;;;;2.63;0.93;;;23.00;85.80;;;;;;5050705;28;20680;-55
2021/07/15 12:58:46;;;;;;;1.33;1.03;;;23.00;86.50;;;;;;5050626;28;20748;-55
2021/07/15 13:01:13;;;;;;;2.47;1.20;;;23.00;86.10;;;;;;5050057;28;20696;-58